Time;durP1;ratioP1;P1;durP2;ratioP2;P2;SDS_P1;SDS_P2;PMS_P1;PMS_P2;Temp;Humidity;BMP_temperature;BMP_pressure;BME280_temperature;BME280_humidity;BME280_pressure;Samples;Min_cycle;Max_cycle;Signal;HPM_P1;HPM_P2
2023/04/06 00:01:54;;;;;;;9.80;7.23;;;6.70;88.90;;;;;;5013294;28;20528;-51
2023/04/06 00:04:22;;;;;;;9.50;6.93;;;6.90;90.00;;;;;;5014788;28;20444;-52
2023/04/06 00:06:49;;;;;;;8.60;6.40;;;7.10;89.80;;;;;;5029968;28;20476;-51
2023/04/06 00:09:15;;;;;;;8.80;6.50;;;7.00;90.10;;;;;;5014591;28;20406;-51
2023/04/06 00:11:42;;;;;;;7.90;7.10;;;6.20;89.70;;;;;;5014644;28;20432;-52
2023/04/06 00:14:09;;;;;;;10.17;8.20;;;6.90;90.20;;;;;;5014610;28;20442;-53
2023/04/06 00:16:35;;;;;;;10.50;7.20;;;6.80;90.30;;;;;;5014624;28;20417;-52
2023/04/06 00:19:02;;;;;;;9.27;7.00;;;6.70;90.10;;;;;;5014276;28;20411;-52
2023/04/06 00:21:30;;;;;;;9.70;6.93;;;6.70;90.10;;;;;;5014124;28;20979;-52
2023/04/06 00:23:57;;;;;;;12.37;8.67;;;6.80;90.40;;;;;;5014608;28;20442;-51
2023/04/06 00:26:24;;;;;;;9.43;7.20;;;7.40;90.80;;;;;;5014459;28;20434;-51
2023/04/06 00:28:52;;;;;;;8.37;6.73;;;6.70;90.40;;;;;;5014025;28;20552;-53
2023/04/06 00:31:19;;;;;;;7.43;6.33;;;6.60;90.40;;;;;;5014198;28;20428;-53
2023/04/06 00:33:45;;;;;;;8.20;7.50;;;6.80;90.30;;;;;;5029456;28;21008;-51
2023/04/06 00:36:12;;;;;;;9.37;7.67;;;6.90;90.50;;;;;;5014534;28;20430;-52
2023/04/06 00:38:40;;;;;;;7.40;6.43;;;6.80;90.50;;;;;;5029068;28;20425;-51
2023/04/06 00:41:07;;;;;;;10.23;7.40;;;6.70;90.40;;;;;;5014012;28;20452;-52
2023/04/06 00:43:33;;;;;;;10.47;7.10;;;6.80;90.50;;;;;;5029270;28;20429;-51
2023/04/06 00:46:00;;;;;;;8.73;6.50;;;6.60;90.40;;;;;;5029279;28;20420;-51
2023/04/06 00:48:27;;;;;;;8.23;6.67;;;6.90;90.60;;;;;;5028804;28;20817;-52
2023/04/06 00:50:54;;;;;;;12.30;7.40;;;7.20;90.80;;;;;;5013799;28;20744;-52
2023/04/06 00:53:21;;;;;;;10.40;7.07;;;6.70;90.60;;;;;;5029158;28;20427;-52
2023/04/06 00:55:50;;;;;;;6.83;5.70;;;6.60;90.40;;;;;;5012629;28;20973;-51
2023/04/06 00:58:16;;;;;;;9.00;7.40;;;6.60;90.60;;;;;;5028733;28;20428;-52
2023/04/06 01:00:49;;;;;;;10.30;6.53;;;6.80;90.80;;;;;;5012326;28;20563;-52
2023/04/06 01:03:19;;;;;;;9.13;6.83;;;6.60;90.80;;;;;;5028973;28;20429;-52
2023/04/06 01:05:46;;;;;;;6.68;5.50;;;6.40;90.70;;;;;;5012379;28;20450;-52
2023/04/06 01:08:21;;;;;;;8.40;6.40;;;6.40;90.70;;;;;;5012049;28;20209;-52
2023/04/06 01:10:51;;;;;;;10.67;7.10;;;6.60;90.90;;;;;;5012242;28;20826;-52
2023/04/06 01:13:25;;;;;;;10.15;6.68;;;6.50;90.80;;;;;;5028745;28;20422;-52
2023/04/06 01:16:08;;;;;;;5.80;5.17;;;6.30;90.60;;;;;;5028760;28;20209;-53
2023/04/06 01:18:53;;;;;;;6.93;6.23;;;6.50;90.80;;;;;;5013403;28;20548;-52
2023/04/06 01:21:25;;;;;;;10.13;6.23;;;6.70;90.90;;;;;;5014056;28;20480;-52
2023/04/06 01:24:10;;;;;;;10.60;7.37;;;6.50;90.80;;;;;;5029221;28;20432;-52
2023/04/06 01:27:01;;;;;;;8.00;7.20;;;6.40;90.80;;;;;;5029265;28;20453;-52
2023/04/06 01:29:35;;;;;;;9.63;6.80;;;6.60;90.90;;;;;;5028760;28;20965;-52
2023/04/06 01:32:05;;;;;;;11.00;7.47;;;6.50;90.80;;;;;;5028718;28;20936;-52
2023/04/06 01:34:36;;;;;;;7.87;5.70;;;6.80;91.00;;;;;;5028612;28;20449;-52
2023/04/06 01:37:06;;;;;;;7.20;6.40;;;6.50;90.90;;;;;;5028493;28;20468;-52
2023/04/06 01:39:34;;;;;;;6.13;5.53;;;6.40;90.70;;;;;;5028013;28;20481;-53
2023/04/06 01:42:03;;;;;;;8.33;6.30;;;6.50;91.00;;;;;;5028553;28;20592;-53
2023/04/06 01:44:32;;;;;;;7.37;6.30;;;6.60;91.00;;;;;;5029709;28;20953;-52
2023/04/06 01:47:07;;;;;;;9.27;7.23;;;6.10;90.60;;;;;;5029574;28;20445;-51
2023/04/06 01:49:34;;;;;;;8.55;6.13;;;6.50;91.10;;;;;;5028810;28;20487;-53
2023/04/06 01:52:01;;;;;;;9.75;6.65;;;6.30;91.00;;;;;;5069217;23;20240;-46
2023/04/06 01:54:28;;;;;;;8.97;6.07;;;6.40;91.10;;;;;;5014740;28;20742;-46
2023/04/06 01:57:07;;;;;;;10.77;6.47;;;6.50;91.10;;;;;;5014030;28;20422;-47
2023/04/06 01:59:40;;;;;;;7.67;6.53;;;5.80;90.80;;;;;;5013999;28;20475;-46
2023/04/06 02:02:14;;;;;;;8.67;6.90;;;6.60;91.20;;;;;;4994501;28;20470;-46
2023/04/06 02:04:45;;;;;;;8.02;6.65;;;6.30;91.20;;;;;;4994643;28;20431;-49
2023/04/06 02:07:14;;;;;;;7.13;6.43;;;6.60;91.30;;;;;;4994658;28;20234;-48
2023/04/06 02:09:40;;;;;;;10.38;7.00;;;6.20;91.10;;;;;;4994187;28;20558;-46
2023/04/06 02:12:14;;;;;;;11.07;6.72;;;6.10;91.10;;;;;;4994658;28;20651;-45
2023/04/06 02:14:41;;;;;;;8.50;6.37;;;6.50;91.20;;;;;;4994595;28;20206;-46
2023/04/06 02:17:08;;;;;;;9.77;5.90;;;6.40;91.20;;;;;;4994432;28;20451;-49
2023/04/06 02:19:34;;;;;;;7.53;5.93;;;6.40;91.20;;;;;;4994436;28;20799;-45
2023/04/06 02:22:01;;;;;;;13.43;6.80;;;6.20;91.10;;;;;;5027135;28;20539;-45
2023/04/06 02:24:28;;;;;;;9.87;6.33;;;6.20;91.20;;;;;;5011986;28;20823;-45
2023/04/06 02:26:54;;;;;;;9.20;5.77;;;6.30;91.20;;;;;;5012114;28;20437;-44
2023/04/06 02:29:22;;;;;;;12.90;6.77;;;6.60;91.50;;;;;;4994082;28;20423;-47
2023/04/06 02:31:50;;;;;;;10.13;6.97;;;6.50;91.40;;;;;;4994371;28;20538;-45
2023/04/06 02:34:18;;;;;;;8.87;6.10;;;5.70;90.90;;;;;;4994332;28;20455;-46
2023/04/06 02:36:48;;;;;;;7.03;6.33;;;6.50;91.40;;;;;;4994435;28;20470;-46
2023/04/06 02:39:15;;;;;;;8.67;6.03;;;6.20;91.30;;;;;;4993909;28;20454;-46
2023/04/06 02:41:42;;;;;;;5.47;4.97;;;6.30;91.40;;;;;;4994729;28;20475;-45
2023/04/06 02:44:10;;;;;;;12.75;6.78;;;5.70;91.10;;;;;;4995933;28;20453;-46
2023/04/06 02:46:41;;;;;;;9.60;6.47;;;6.10;91.20;;;;;;4996567;28;20226;-46
2023/04/06 02:49:08;;;;;;;6.77;6.07;;;6.30;91.40;;;;;;5011980;28;20420;-45
2023/04/06 02:51:35;;;;;;;11.63;7.10;;;6.10;91.40;;;;;;4994026;28;20483;-46
2023/04/06 02:54:17;;;;;;;11.13;5.90;;;6.20;91.50;;;;;;4994140;28;20947;-47
2023/04/06 02:56:44;;;;;;;8.23;6.73;;;5.90;91.40;;;;;;5011844;28;20412;-46
2023/04/06 02:59:11;;;;;;;9.97;7.10;;;6.10;91.50;;;;;;4993761;28;20428;-46
2023/04/06 03:01:38;;;;;;;6.73;6.00;;;5.90;91.70;;;;;;4993902;28;20452;-45
2023/04/06 03:04:07;;;;;;;10.57;7.60;;;5.30;91.70;;;;;;4994843;28;20460;-46
2023/04/06 03:06:34;;;;;;;9.20;7.00;;;6.00;92.10;;;;;;4994818;28;20489;-45
2023/04/06 03:09:11;;;;;;;13.30;7.43;;;5.60;92.10;;;;;;4995196;28;20449;-45
2023/04/06 03:11:40;;;;;;;10.73;7.23;;;5.60;92.30;;;;;;4998311;28;20472;-45
2023/04/06 03:14:07;;;;;;;13.30;9.13;;;5.70;92.50;;;;;;4997813;28;20952;-46
2023/04/06 03:16:34;;;;;;;10.27;8.50;;;5.70;92.60;;;;;;4997833;28;20467;-46
2023/04/06 03:19:02;;;;;;;10.25;8.32;;;5.60;92.60;;;;;;4997709;28;20457;-46
2023/04/06 03:21:34;;;;;;;11.93;9.07;;;5.20;92.50;;;;;;4997738;28;20232;-45
2023/04/06 03:24:01;;;;;;;14.23;9.77;;;5.60;92.90;;;;;;4997846;28;20432;-45
2023/04/06 03:26:27;;;;;;;11.73;8.73;;;5.80;93.10;;;;;;5015179;28;20198;-47
2023/04/06 03:28:54;;;;;;;10.73;9.63;;;5.80;93.20;;;;;;4997330;28;20206;-46
2023/04/06 03:31:26;;;;;;;10.43;8.20;;;5.40;93.10;;;;;;4997564;28;20534;-47
2023/04/06 03:34:00;;;;;;;15.27;9.68;;;5.50;93.00;;;;;;5030603;28;20206;-46
2023/04/06 03:36:31;;;;;;;11.10;9.33;;;5.30;93.10;;;;;;4997517;28;20202;-45
2023/04/06 03:38:59;;;;;;;11.70;8.70;;;5.30;93.30;;;;;;4997372;28;20854;-46
2023/04/06 03:41:26;;;;;;;10.23;9.23;;;5.40;93.50;;;;;;4999037;28;20879;-45
2023/04/06 03:44:09;;;;;;;10.13;9.18;;;5.20;93.50;;;;;;5000336;28;20456;-47
2023/04/06 03:46:37;;;;;;;12.40;9.05;;;5.40;93.60;;;;;;4999369;28;20233;-45
2023/04/06 03:49:04;;;;;;;12.27;9.38;;;5.10;93.50;;;;;;4997231;28;20296;-45
2023/04/06 03:51:31;;;;;;;10.60;9.50;;;4.80;93.40;;;;;;5015361;28;20689;-45
2023/04/06 03:53:57;;;;;;;11.27;8.63;;;5.30;93.70;;;;;;5015000;28;20189;-47
2023/04/06 03:56:26;;;;;;;13.73;9.73;;;5.10;93.80;;;;;;5014623;28;20201;-48
2023/04/06 03:58:54;;;;;;;13.45;9.48;;;5.10;93.80;;;;;;4996905;28;20209;-48
2023/04/06 04:01:21;;;;;;;13.00;9.68;;;5.00;93.60;;;;;;5015006;28;20287;-45
2023/04/06 04:03:48;;;;;;;11.15;8.63;;;5.10;93.90;;;;;;5014861;28;20775;-46
2023/04/06 04:06:14;;;;;;;14.93;10.20;;;5.10;94.00;;;;;;4996978;28;20209;-47
2023/04/06 04:08:42;;;;;;;16.42;11.52;;;5.10;93.90;;;;;;5014895;28;20198;-46
2023/04/06 04:11:08;;;;;;;13.98;10.82;;;5.10;94.30;;;;;;5014596;28;20217;-48
2023/04/06 04:13:36;;;;;;;21.73;11.48;;;4.60;94.00;;;;;;4996945;28;20221;-46
2023/04/06 04:16:06;;;;;;;18.13;11.02;;;4.90;94.30;;;;;;4997177;28;20733;-46
2023/04/06 04:18:32;;;;;;;16.55;10.38;;;4.90;94.50;;;;;;5014490;28;20492;-45
2023/04/06 04:21:00;;;;;;;14.38;10.98;;;4.90;94.60;;;;;;5014353;28;20213;-45
2023/04/06 04:23:26;;;;;;;15.65;10.77;;;5.00;94.60;;;;;;5029634;28;20233;-46
2023/04/06 04:25:53;;;;;;;15.00;11.68;;;4.90;94.70;;;;;;4997004;28;20205;-47
2023/04/06 04:28:19;;;;;;;21.15;11.27;;;4.80;94.80;;;;;;4996724;28;20576;-47
2023/04/06 04:30:48;;;;;;;13.30;11.00;;;4.80;94.90;;;;;;4996701;28;20283;-45
2023/04/06 04:33:15;;;;;;;19.63;11.00;;;4.90;95.10;;;;;;4997822;28;20225;-46
2023/04/06 04:35:43;;;;;;;11.40;9.88;;;4.80;95.80;;;;;;4997877;28;20216;-48
2023/04/06 04:38:12;;;;;;;13.75;9.63;;;4.40;95.20;;;;;;4997283;28;20225;-46
2023/04/06 04:40:42;;;;;;;11.45;10.35;;;4.70;95.60;;;;;;4996979;28;20227;-45
2023/04/06 04:43:11;;;;;;;11.95;10.45;;;4.80;95.50;;;;;;4997590;28;20663;-47
2023/04/06 04:45:39;;;;;;;12.27;11.07;;;4.90;95.70;;;;;;4997349;28;20561;-46
2023/04/06 04:48:16;;;;;;;15.45;10.95;;;4.60;95.70;;;;;;4996329;28;20204;-48
2023/04/06 04:50:51;;;;;;;21.33;10.25;;;4.90;95.90;;;;;;4996457;28;20236;-47
2023/04/06 04:53:21;;;;;;;11.90;9.65;;;4.80;96.10;;;;;;4996568;28;20201;-46
2023/04/06 04:55:47;;;;;;;12.02;10.45;;;4.80;96.10;;;;;;4996321;28;20212;-48
2023/04/06 04:58:16;;;;;;;13.93;10.52;;;4.80;96.20;;;;;;4996215;28;20613;-45
2023/04/06 05:00:49;;;;;;;13.23;10.10;;;4.30;96.10;;;;;;4996666;28;20564;-45
2023/04/06 05:03:22;;;;;;;13.50;10.20;;;4.40;96.30;;;;;;4996454;28;20233;-44
2023/04/06 05:05:56;;;;;;;14.63;12.50;;;4.90;96.50;;;;;;4996111;28;20231;-46
2023/04/06 05:08:25;;;;;;;18.02;12.95;;;4.60;96.80;;;;;;4996101;28;20209;-45
2023/04/06 05:10:52;;;;;;;13.20;11.57;;;4.90;97.10;;;;;;4996246;28;20244;-47
2023/04/06 05:13:20;;;;;;;13.48;10.48;;;4.80;97.30;;;;;;4998087;28;20276;-44
2023/04/06 05:15:48;;;;;;;11.75;10.55;;;4.90;97.70;;;;;;4998757;28;20297;-46
2023/04/06 05:18:25;;;;;;;13.32;10.60;;;4.80;97.90;;;;;;4998822;28;20666;-45
2023/04/06 05:20:51;;;;;;;14.38;10.80;;;4.70;98.00;;;;;;5016283;28;20223;-46
2023/04/06 05:23:21;;;;;;;11.70;9.88;;;4.80;98.30;;;;;;5000284;28;20246;-46
2023/04/06 05:25:50;;;;;;;13.65;9.73;;;5.00;98.40;;;;;;4999743;28;20211;-45
2023/04/06 05:28:21;;;;;;;13.88;11.05;;;5.10;98.60;;;;;;5000665;28;20202;-45
2023/04/06 05:30:47;;;;;;;11.98;10.68;;;4.80;98.50;;;;;;5000959;28;20221;-45
2023/04/06 05:33:15;;;;;;;12.10;10.52;;;5.00;98.50;;;;;;4995835;28;20204;-45
2023/04/06 05:36:03;;;;;;;15.60;10.05;;;5.00;98.40;;;;;;5013451;28;20216;-48
2023/04/06 05:38:30;;;;;;;14.53;10.40;;;5.10;98.80;;;;;;4995372;28;20205;-46
2023/04/06 05:41:02;;;;;;;15.45;10.52;;;5.30;98.80;;;;;;4995917;28;20803;-46
2023/04/06 05:43:32;;;;;;;13.10;9.70;;;5.20;98.60;;;;;;5013322;28;20222;-45
2023/04/06 05:46:00;;;;;;;17.27;10.23;;;5.50;98.60;;;;;;4995295;28;20203;-45
2023/04/06 05:48:27;;;;;;;12.77;9.43;;;5.50;98.40;;;;;;4994679;28;20452;-47
2023/04/06 05:50:53;;;;;;;15.60;9.37;;;5.60;98.10;;;;;;4995240;28;20444;-46
2023/04/06 05:53:28;;;;;;;10.52;9.25;;;5.70;98.10;;;;;;4995032;28;20449;-45
2023/04/06 05:55:57;;;;;;;15.63;9.65;;;5.90;98.00;;;;;;5013116;28;20199;-45
2023/04/06 05:58:26;;;;;;;10.83;8.93;;;5.90;97.80;;;;;;4994839;28;20225;-47
2023/04/06 06:00:58;;;;;;;12.83;9.73;;;6.20;97.70;;;;;;4995042;28;20866;-45
2023/04/06 06:03:25;;;;;;;13.93;9.70;;;6.30;97.60;;;;;;4995147;28;20529;-46
2023/04/06 06:05:54;;;;;;;12.93;10.00;;;5.80;97.10;;;;;;5028428;28;20823;-46
2023/04/06 06:08:31;;;;;;;18.33;10.53;;;6.40;97.10;;;;;;4995623;28;20494;-48
2023/04/06 06:11:00;;;;;;;13.83;9.80;;;6.50;96.90;;;;;;4996564;28;20477;-47
2023/04/06 06:13:27;;;;;;;13.30;8.97;;;6.20;96.50;;;;;;5029639;28;20436;-46
2023/04/06 06:15:55;;;;;;;15.10;9.20;;;6.70;96.40;;;;;;4995940;28;20507;-46
2023/04/06 06:18:22;;;;;;;12.80;8.67;;;6.70;96.10;;;;;;4995122;28;20449;-45
2023/04/06 06:20:52;;;;;;;16.10;10.30;;;6.70;95.90;;;;;;4995694;28;20816;-47
2023/04/06 06:23:19;;;;;;;11.63;8.43;;;6.60;95.70;;;;;;5012467;28;20513;-46
2023/04/06 06:25:48;;;;;;;11.33;7.73;;;6.90;95.60;;;;;;5027401;28;20455;-46
2023/04/06 06:28:15;;;;;;;11.77;8.60;;;7.00;95.30;;;;;;4994133;28;20428;-45
2023/04/06 06:30:41;;;;;;;12.67;8.63;;;7.00;95.10;;;;;;5012291;28;20449;-47
2023/04/06 06:33:08;;;;;;;14.97;8.80;;;7.00;95.00;;;;;;5027804;28;20549;-47
2023/04/06 06:35:35;;;;;;;13.83;9.07;;;6.80;94.90;;;;;;4994499;28;20544;-46
2023/04/06 06:38:04;;;;;;;10.00;8.37;;;6.90;94.60;;;;;;4994215;28;20449;-49
2023/04/06 06:40:32;;;;;;;9.87;8.37;;;7.00;94.70;;;;;;4994278;28;20536;-48
2023/04/06 06:43:00;;;;;;;13.90;8.73;;;7.00;94.60;;;;;;5013016;28;20551;-46
2023/04/06 06:45:37;;;;;;;9.80;7.33;;;6.80;94.20;;;;;;5001018;28;20468;-47
2023/04/06 06:48:04;;;;;;;13.30;8.60;;;7.10;94.20;;;;;;5000864;28;20433;-46
2023/04/06 06:50:31;;;;;;;14.60;8.30;;;6.70;93.90;;;;;;5018368;28;20778;-48
2023/04/06 06:52:57;;;;;;;11.30;8.90;;;7.30;94.20;;;;;;5018829;28;20427;-47
2023/04/06 06:55:25;;;;;;;11.90;8.97;;;7.10;93.80;;;;;;5018448;28;20459;-48
2023/04/06 06:57:52;;;;;;;10.97;8.57;;;7.30;93.80;;;;;;5001161;28;20436;-47
2023/04/06 07:00:21;;;;;;;10.77;8.80;;;7.40;93.70;;;;;;5018171;28;20540;-48
2023/04/06 07:02:47;;;;;;;10.47;8.60;;;7.40;93.60;;;;;;5018466;28;20452;-46
2023/04/06 07:05:14;;;;;;;11.77;8.23;;;7.60;93.40;;;;;;5001235;28;20452;-46
2023/04/06 07:07:41;;;;;;;10.15;7.32;;;7.40;93.30;;;;;;5034354;28;20551;-46
2023/04/06 07:10:09;;;;;;;14.25;9.55;;;8.10;93.20;;;;;;5019223;28;20438;-45
2023/04/06 07:12:38;;;;;;;14.80;8.27;;;7.80;92.80;;;;;;5035049;28;20205;-45
2023/04/06 07:15:06;;;;;;;11.90;8.50;;;7.70;92.70;;;;;;5018924;28;20530;-47
2023/04/06 07:17:35;;;;;;;13.50;9.02;;;7.70;92.70;;;;;;5000281;28;20937;-46
2023/04/06 07:20:02;;;;;;;14.10;7.97;;;7.80;92.60;;;;;;5001561;28;20687;-46
2023/04/06 07:22:29;;;;;;;11.97;9.67;;;7.50;92.30;;;;;;5018414;28;20440;-46
2023/04/06 07:24:56;;;;;;;11.80;7.00;;;7.50;92.30;;;;;;5000307;28;20479;-48
2023/04/06 07:27:22;;;;;;;12.23;8.60;;;7.80;92.30;;;;;;5017424;28;20445;-46
2023/04/06 07:29:49;;;;;;;13.33;8.60;;;7.70;91.90;;;;;;5000255;28;20273;-48
2023/04/06 07:32:16;;;;;;;10.30;7.97;;;8.00;91.60;;;;;;5000577;28;20882;-46
2023/04/06 07:34:45;;;;;;;24.40;9.27;;;7.90;91.50;;;;;;5001257;28;20490;-45
2023/04/06 07:37:11;;;;;;;13.80;8.03;;;8.00;91.70;;;;;;5000456;28;20467;-47
2023/04/06 07:39:38;;;;;;;12.97;8.33;;;7.80;91.40;;;;;;5017984;28;20471;-47
2023/04/06 07:42:05;;;;;;;14.60;7.37;;;7.80;91.30;;;;;;5017899;28;20523;-47
2023/04/06 07:44:32;;;;;;;10.50;6.50;;;7.80;91.10;;;;;;5033754;28;20492;-47
2023/04/06 07:46:59;;;;;;;11.50;6.90;;;7.50;90.60;;;;;;5000763;28;20433;-47
2023/04/06 07:49:26;;;;;;;8.60;6.30;;;7.90;90.40;;;;;;5017784;28;20438;-46
2023/04/06 07:51:55;;;;;;;8.40;6.03;;;7.70;90.10;;;;;;5052768;23;20502;-51
2023/04/06 07:54:21;;;;;;;8.40;5.87;;;7.80;90.10;;;;;;5039495;28;20957;-50
2023/04/06 07:56:48;;;;;;;12.87;6.33;;;7.70;90.10;;;;;;5053907;28;20437;-51
2023/04/06 07:59:15;;;;;;;8.57;6.40;;;8.10;90.10;;;;;;5036199;28;20464;-50
2023/04/06 08:01:41;;;;;;;11.07;6.67;;;7.80;89.70;;;;;;5054390;28;20461;-50
2023/04/06 08:04:08;;;;;;;6.93;5.73;;;7.90;89.10;;;;;;5054650;28;20476;-50
2023/04/06 08:06:36;;;;;;;10.47;6.57;;;8.00;89.10;;;;;;5054325;28;20405;-50
2023/04/06 08:09:04;;;;;;;7.03;6.00;;;7.90;89.10;;;;;;5053847;28;20465;-50
2023/04/06 08:11:30;;;;;;;10.00;6.70;;;8.10;88.90;;;;;;5054177;28;20456;-50
2023/04/06 08:13:57;;;;;;;7.80;6.73;;;8.10;88.60;;;;;;5054417;28;20477;-50
2023/04/06 08:16:24;;;;;;;12.20;6.53;;;8.00;88.40;;;;;;5054344;28;20430;-50
2023/04/06 08:18:51;;;;;;;12.87;6.87;;;8.30;88.70;;;;;;5053994;28;20440;-50
2023/04/06 08:21:17;;;;;;;9.80;7.30;;;8.00;87.90;;;;;;5053926;28;20421;-50
2023/04/06 08:23:45;;;;;;;11.40;8.70;;;8.40;87.90;;;;;;5054074;28;20478;-51
2023/04/06 08:26:13;;;;;;;8.30;6.23;;;8.40;87.20;;;;;;5054222;28;20445;-50
2023/04/06 08:28:40;;;;;;;11.00;6.80;;;7.70;85.50;;;;;;5053536;28;20634;-50
2023/04/06 08:31:07;;;;;;;9.93;6.10;;;8.20;85.10;;;;;;5053762;28;20462;-50
2023/04/06 08:33:35;;;;;;;7.00;5.27;;;7.70;83.60;;;;;;5050671;28;20792;-51
2023/04/06 08:36:08;;;;;;;7.95;5.10;;;8.30;83.20;;;;;;5048632;28;20527;-51
2023/04/06 08:38:35;;;;;;;9.20;4.60;;;8.60;82.00;;;;;;5034772;28;20443;-51
2023/04/06 08:41:08;;;;;;;9.80;5.57;;;9.00;81.70;;;;;;5016006;28;20225;-51
2023/04/06 08:43:43;;;;;;;9.67;4.60;;;8.80;80.90;;;;;;5047647;28;20481;-50
2023/04/06 08:46:11;;;;;;;7.10;4.87;;;8.60;80.50;;;;;;5053320;28;21019;-52
2023/04/06 08:48:38;;;;;;;7.20;4.13;;;8.70;79.90;;;;;;5035308;28;20461;-52
2023/04/06 08:51:05;;;;;;;5.40;4.00;;;8.90;79.70;;;;;;5053024;28;20452;-51
2023/04/06 08:53:32;;;;;;;7.00;4.80;;;8.80;79.20;;;;;;5053326;28;20405;-51
2023/04/06 08:56:00;;;;;;;8.15;5.35;;;9.20;80.10;;;;;;5052563;28;20446;-52
2023/04/06 08:58:28;;;;;;;7.63;4.80;;;9.10;79.80;;;;;;5052856;28;20188;-50
2023/04/06 09:00:56;;;;;;;107.20;21.27;;;8.70;78.50;;;;;;5053099;28;20461;-50
2023/04/06 09:03:25;;;;;;;11.70;5.97;;;8.90;78.00;;;;;;5051977;28;20422;-51
2023/04/06 09:05:51;;;;;;;10.23;4.38;;;9.40;78.60;;;;;;5052555;28;20525;-51
2023/04/06 09:08:18;;;;;;;6.37;3.73;;;9.40;78.40;;;;;;5044503;28;20211;-51
2023/04/06 09:10:45;;;;;;;8.73;3.50;;;9.50;76.80;;;;;;5033099;28;20463;-52
2023/04/06 09:13:11;;;;;;;4.97;3.57;;;8.90;74.80;;;;;;5032972;28;20440;-51
2023/04/06 09:15:39;;;;;;;6.10;3.73;;;9.20;74.90;;;;;;5038718;28;20862;-51
2023/04/06 09:18:08;;;;;;;7.23;3.40;;;9.20;74.30;;;;;;5038671;28;20940;-51
2023/04/06 09:20:34;;;;;;;4.80;3.80;;;9.20;74.60;;;;;;5034172;28;20463;-52
2023/04/06 09:23:01;;;;;;;5.03;3.42;;;9.20;74.30;;;;;;5044739;28;20920;-51
2023/04/06 09:25:28;;;;;;;5.20;3.73;;;9.60;72.60;;;;;;5032820;28;20234;-51
2023/04/06 09:28:00;;;;;;;6.53;3.20;;;9.30;71.70;;;;;;5032641;28;20436;-51
2023/04/06 09:30:27;;;;;;;5.97;4.00;;;9.40;71.60;;;;;;5032317;28;20849;-51
2023/04/06 09:32:55;;;;;;;7.47;3.70;;;9.30;72.50;;;;;;5034644;28;20402;-51
2023/04/06 09:35:26;;;;;;;8.07;3.10;;;9.60;72.10;;;;;;5034491;28;20451;-51
2023/04/06 09:37:55;;;;;;;4.67;3.30;;;9.50;71.80;;;;;;5052330;28;20430;-51
2023/04/06 09:40:22;;;;;;;4.93;2.97;;;9.30;71.90;;;;;;5051898;28;20441;-50
2023/04/06 09:42:51;;;;;;;5.27;3.27;;;9.60;70.60;;;;;;5052130;28;20813;-51
2023/04/06 09:45:18;;;;;;;3.87;2.57;;;9.20;69.60;;;;;;5052443;28;21199;-51
2023/04/06 09:47:46;;;;;;;6.27;2.80;;;9.40;69.00;;;;;;5052445;28;20435;-50
2023/04/06 09:50:14;;;;;;;5.20;3.20;;;9.60;68.00;;;;;;5050702;28;20420;-52
2023/04/06 09:52:48;;;;;;;4.67;3.27;;;9.90;68.70;;;;;;5051901;28;20676;-51
2023/04/06 09:55:21;;;;;;;7.30;3.67;;;9.60;67.60;;;;;;5052201;28;20475;-51
2023/04/06 09:57:54;;;;;;;3.70;2.60;;;9.80;68.20;;;;;;5052255;28;20423;-50
2023/04/06 10:00:24;;;;;;;5.80;2.90;;;9.90;68.50;;;;;;5051824;28;21001;-50
2023/04/06 10:02:55;;;;;;;5.30;3.10;;;9.70;68.40;;;;;;5052105;28;20423;-53
2023/04/06 10:05:28;;;;;;;4.20;2.33;;;10.20;67.00;;;;;;5052174;28;20474;-50
2023/04/06 10:08:00;;;;;;;6.40;2.50;;;9.90;63.00;;;;;;5051324;28;20421;-50
2023/04/06 10:10:27;;;;;;;3.20;2.30;;;10.20;59.20;;;;;;5041074;28;20464;-52
2023/04/06 10:12:55;;;;;;;3.65;2.40;;;10.90;59.10;;;;;;5031713;28;20436;-52
2023/04/06 10:15:22;;;;;;;4.53;2.80;;;10.00;58.70;;;;;;5044914;28;20434;-51
2023/04/06 10:17:49;;;;;;;6.65;2.60;;;11.00;58.60;;;;;;5050155;28;20898;-51
2023/04/06 10:20:22;;;;;;;7.00;2.93;;;11.30;58.30;;;;;;5051774;28;20585;-51
2023/04/06 10:22:56;;;;;;;3.30;2.73;;;11.10;57.80;;;;;;5052149;28;20541;-52
2023/04/06 10:25:29;;;;;;;8.07;2.60;;;11.40;58.60;;;;;;5051348;28;20597;-52
2023/04/06 10:28:00;;;;;;;3.67;2.93;;;11.20;57.80;;;;;;5050154;28;20966;-52
2023/04/06 10:30:28;;;;;;;6.50;3.10;;;11.50;58.20;;;;;;5049530;28;20433;-52
2023/04/06 10:32:55;;;;;;;4.93;2.60;;;10.60;57.10;;;;;;5049489;28;20431;-51
2023/04/06 10:35:22;;;;;;;6.37;2.83;;;11.60;56.70;;;;;;5050758;28;20665;-51
2023/04/06 10:37:51;;;;;;;3.33;2.20;;;11.50;56.80;;;;;;5051012;28;20871;-52
2023/04/06 10:40:24;;;;;;;4.27;2.33;;;11.70;57.60;;;;;;5049902;28;20459;-51
2023/04/06 10:42:53;;;;;;;6.80;3.03;;;11.50;57.10;;;;;;5051673;28;20444;-52
2023/04/06 10:45:21;;;;;;;4.97;2.90;;;10.90;56.90;;;;;;5051334;28;20476;-52
2023/04/06 10:47:48;;;;;;;9.13;2.77;;;11.40;56.60;;;;;;5051757;28;20907;-50
2023/04/06 10:50:16;;;;;;;7.23;2.87;;;10.90;56.30;;;;;;5050806;28;20435;-52
2023/04/06 10:52:45;;;;;;;2.97;2.20;;;11.00;56.40;;;;;;5051397;28;20516;-53
2023/04/06 10:55:13;;;;;;;5.43;3.00;;;11.50;56.50;;;;;;5051374;28;20819;-52
2023/04/06 10:57:40;;;;;;;6.60;2.93;;;10.90;55.60;;;;;;5051599;28;20788;-52
2023/04/06 11:00:09;;;;;;;4.03;2.03;;;11.30;56.10;;;;;;5032885;28;20435;-51
2023/04/06 11:02:37;;;;;;;3.30;2.57;;;11.00;55.10;;;;;;5051409;28;20530;-51
2023/04/06 11:05:04;;;;;;;9.60;3.60;;;11.30;55.40;;;;;;5050813;28;20443;-51
2023/04/06 11:07:31;;;;;;;5.47;3.00;;;12.00;55.10;;;;;;5051953;28;20208;-51
2023/04/06 11:09:58;;;;;;;3.70;2.50;;;12.00;54.30;;;;;;5044356;28;20523;-51
2023/04/06 11:12:26;;;;;;;5.40;3.30;;;11.60;53.90;;;;;;5031334;28;20866;-51
2023/04/06 11:15:00;;;;;;;4.60;2.60;;;11.60;53.90;;;;;;5031414;28;20443;-50
2023/04/06 11:17:29;;;;;;;2.93;2.30;;;11.50;54.00;;;;;;5030830;28;20444;-51
2023/04/06 11:19:56;;;;;;;3.23;2.30;;;12.00;54.00;;;;;;5030479;28;20508;-52
2023/04/06 11:22:23;;;;;;;6.63;2.30;;;12.00;54.20;;;;;;5031361;28;20447;-52
2023/04/06 11:24:50;;;;;;;3.83;2.47;;;11.60;53.60;;;;;;5031305;28;20476;-51
2023/04/06 11:27:16;;;;;;;4.03;2.63;;;10.90;53.60;;;;;;5033878;28;20437;-51
2023/04/06 11:29:45;;;;;;;3.40;2.70;;;11.60;53.70;;;;;;5013145;28;20209;-51
2023/04/06 11:32:20;;;;;;;4.23;2.90;;;11.20;52.40;;;;;;5034706;28;21022;-51
2023/04/06 11:34:48;;;;;;;3.50;2.43;;;11.60;52.90;;;;;;5034736;28;20734;-51
2023/04/06 11:37:15;;;;;;;6.90;3.17;;;12.00;52.80;;;;;;5034919;28;20428;-51
2023/04/06 11:39:50;;;;;;;4.00;2.70;;;11.50;52.70;;;;;;5034376;28;20451;-51
2023/04/06 11:42:23;;;;;;;5.40;2.77;;;11.70;53.30;;;;;;5040987;28;20442;-51
2023/04/06 11:44:52;;;;;;;3.27;2.50;;;11.50;52.90;;;;;;5054617;28;20503;-52
2023/04/06 11:47:21;;;;;;;2.70;2.00;;;11.70;52.60;;;;;;5054712;28;20516;-51
2023/04/06 11:49:50;;;;;;;2.80;2.33;;;11.50;51.90;;;;;;5054155;28;20433;-51
2023/04/06 11:52:18;;;;;;;3.20;2.57;;;11.70;52.20;;;;;;5054309;28;21050;-51
2023/04/06 11:54:45;;;;;;;4.87;3.10;;;11.90;52.10;;;;;;5054451;28;20785;-50
2023/04/06 11:57:12;;;;;;;3.87;2.43;;;11.80;52.30;;;;;;5054435;28;20432;-51
2023/04/06 11:59:38;;;;;;;5.00;3.40;;;12.10;52.70;;;;;;5054027;28;20447;-52
2023/04/06 12:02:05;;;;;;;3.43;2.80;;;12.20;52.00;;;;;;5054197;28;20455;-52
2023/04/06 12:04:32;;;;;;;4.25;2.80;;;11.70;50.90;;;;;;5052272;28;20940;-51
2023/04/06 12:07:00;;;;;;;3.93;2.53;;;12.80;51.00;;;;;;5050535;28;20194;-51
2023/04/06 12:09:27;;;;;;;3.37;2.87;;;12.80;50.90;;;;;;5053590;28;20452;-50
2023/04/06 12:11:53;;;;;;;4.40;3.20;;;12.30;50.30;;;;;;5053778;28;20581;-51
2023/04/06 12:14:21;;;;;;;5.13;3.10;;;12.40;50.60;;;;;;5054215;28;20442;-51
2023/04/06 12:16:48;;;;;;;7.43;2.97;;;13.00;51.40;;;;;;5034183;28;20443;-51
2023/04/06 12:19:15;;;;;;;5.07;3.07;;;13.30;51.70;;;;;;5033628;28;20441;-51
2023/04/06 12:21:42;;;;;;;4.73;2.90;;;13.00;51.50;;;;;;5037454;28;20463;-52
2023/04/06 12:24:10;;;;;;;6.50;3.13;;;13.30;51.20;;;;;;5044204;28;20962;-52
2023/04/06 12:26:37;;;;;;;4.90;2.80;;;12.80;50.90;;;;;;5054182;28;20476;-52
2023/04/06 12:29:06;;;;;;;5.03;2.53;;;13.00;51.30;;;;;;5037082;28;20441;-53
2023/04/06 12:31:35;;;;;;;4.67;2.77;;;12.60;51.00;;;;;;5034001;28;20466;-52
2023/04/06 12:34:03;;;;;;;5.00;2.77;;;12.50;51.60;;;;;;5037090;28;20496;-51
2023/04/06 12:36:29;;;;;;;3.50;2.50;;;12.50;51.10;;;;;;5042545;28;20448;-51
2023/04/06 12:38:56;;;;;;;3.53;2.27;;;12.20;51.00;;;;;;5052974;28;20525;-51
2023/04/06 12:41:24;;;;;;;4.23;2.87;;;12.30;51.50;;;;;;5048364;28;20984;-51
2023/04/06 12:43:51;;;;;;;5.03;2.30;;;12.10;50.70;;;;;;5053856;28;20411;-51
2023/04/06 12:46:18;;;;;;;7.73;3.60;;;11.90;50.50;;;;;;5035957;28;20914;-52
2023/04/06 12:48:44;;;;;;;4.47;2.80;;;12.20;50.80;;;;;;5053084;28;20492;-52
2023/04/06 12:51:11;;;;;;;4.53;2.80;;;12.40;51.10;;;;;;5053358;28;20459;-50
2023/04/06 12:53:37;;;;;;;8.13;2.97;;;11.70;50.60;;;;;;5036681;28;20438;-52
2023/04/06 12:56:12;;;;;;;4.07;2.60;;;12.20;51.30;;;;;;5033588;28;20436;-51